createdAt,value
2023-05-08T00:01:16.830Z,36.05
2023-05-08T00:03:43.264Z,36.01
2023-05-08T00:06:09.881Z,36.19
2023-05-08T00:08:36.273Z,36.16
2023-05-08T00:11:02.793Z,35.97
2023-05-08T00:13:29.158Z,35.88
2023-05-08T00:15:55.653Z,35.83
2023-05-08T00:18:22.016Z,35.88
2023-05-08T00:20:48.833Z,35.91
2023-05-08T00:23:15.271Z,35.65
2023-05-08T00:26:36.021Z,35.67
2023-05-08T00:29:02.796Z,35.53
2023-05-08T00:31:30.156Z,35.69
2023-05-08T00:33:56.627Z,35.50
2023-05-08T00:36:23.086Z,35.60
2023-05-08T00:38:49.492Z,35.46
2023-05-08T00:41:16.184Z,35.59
2023-05-08T00:43:42.683Z,35.32
2023-05-08T00:46:12.082Z,35.33
2023-05-08T00:48:39.802Z,35.51
2023-05-08T00:51:08.220Z,35.57
2023-05-08T00:53:37.416Z,35.52
2023-05-08T00:56:05.243Z,35.24
2023-05-08T00:58:32.391Z,35.48
2023-05-08T01:00:59.943Z,35.28
2023-05-08T01:03:26.786Z,35.37
2023-05-08T01:05:54.289Z,35.21
2023-05-08T01:08:20.896Z,35.10
2023-05-08T01:10:53.874Z,35.17
2023-05-08T01:13:23.146Z,35.31
2023-05-08T01:15:54.574Z,35.23
2023-05-08T01:18:33.039Z,35.30
2023-05-08T01:21:03.112Z,35.23
2023-05-08T01:23:35.408Z,35.25
2023-05-08T01:26:10.842Z,35.14
2023-05-08T01:28:43.391Z,35.15
2023-05-08T01:31:15.795Z,35.20
2023-05-08T01:33:56.698Z,35.19
2023-05-08T01:36:27.161Z,35.06
2023-05-08T01:38:55.637Z,35.29
2023-05-08T01:41:26.023Z,35.24
2023-05-08T01:43:55.593Z,35.14
2023-05-08T01:46:27.021Z,35.07
2023-05-08T01:49:03.781Z,35.18
2023-05-08T01:51:36.253Z,35.13
2023-05-08T01:54:05.940Z,34.94
2023-05-08T01:56:34.591Z,35.09
2023-05-08T01:59:01.626Z,35.18
2023-05-08T02:01:29.972Z,34.94
2023-05-08T02:03:57.989Z,35.11
2023-05-08T02:06:25.403Z,35.03
2023-05-08T02:08:52.405Z,35.04
2023-05-08T02:11:20.308Z,35.03
2023-05-08T02:13:48.502Z,35.03
2023-05-08T02:16:15.148Z,35.08
2023-05-08T02:18:44.780Z,35.03
2023-05-08T02:21:12.496Z,34.95
2023-05-08T02:23:38.828Z,35.03
2023-05-08T02:26:05.870Z,34.89
2023-05-08T02:28:32.977Z,34.75
2023-05-08T02:31:00.734Z,34.97
2023-05-08T02:33:28.137Z,34.96
2023-05-08T02:35:56.253Z,34.91
2023-05-08T02:38:23.692Z,34.70
2023-05-08T02:40:52.986Z,34.70
2023-05-08T02:43:19.327Z,34.89
2023-05-08T02:45:48.638Z,34.91
2023-05-08T02:48:19.964Z,34.80
2023-05-08T02:50:57.555Z,34.66
2023-05-08T02:53:26.817Z,34.72
2023-05-08T02:55:55.082Z,34.89
2023-05-08T02:58:30.534Z,34.97
2023-05-08T03:00:59.381Z,35.03
2023-05-08T03:03:46.101Z,34.91
2023-05-08T03:06:21.648Z,35.00
2023-05-08T03:08:49.089Z,35.00
2023-05-08T03:11:17.876Z,34.97
2023-05-08T03:13:45.369Z,34.81
2023-05-08T03:16:13.488Z,34.59
2023-05-08T03:18:42.994Z,34.82
2023-05-08T03:21:10.268Z,34.97
2023-05-08T03:23:37.003Z,34.89
2023-05-08T03:26:04.569Z,35.07
2023-05-08T03:28:31.837Z,35.08
2023-05-08T03:30:59.075Z,35.32
2023-05-08T03:33:26.844Z,35.69
2023-05-08T03:35:53.688Z,35.70
2023-05-08T03:38:20.766Z,35.64
2023-05-08T03:40:47.485Z,35.48
2023-05-08T03:43:15.599Z,35.61
2023-05-08T03:45:41.988Z,35.61
2023-05-08T03:48:09.164Z,35.51
2023-05-08T03:50:36.730Z,35.64
2023-05-08T03:53:03.494Z,35.54
2023-05-08T03:55:30.462Z,35.46
2023-05-08T03:58:10.919Z,35.34
2023-05-08T04:00:49.213Z,35.37
2023-05-08T04:03:24.981Z,35.32
2023-05-08T04:06:11.704Z,35.48
2023-05-08T04:08:43.570Z,35.46
2023-05-08T04:11:15.767Z,35.38
2023-05-08T04:13:49.235Z,35.29
2023-05-08T04:16:22.888Z,35.30
2023-05-08T04:18:50.733Z,35.30
2023-05-08T04:21:20.026Z,35.19
2023-05-08T04:23:48.131Z,35.45
2023-05-08T04:26:16.761Z,35.20
2023-05-08T04:28:43.708Z,35.23
2023-05-08T04:31:10.328Z,35.47
2023-05-08T04:33:36.766Z,35.35
2023-05-08T04:36:03.476Z,35.30
2023-05-08T04:38:29.973Z,35.23
2023-05-08T04:40:56.434Z,35.59
2023-05-08T04:43:22.902Z,35.48
2023-05-08T04:45:49.290Z,35.63
2023-05-08T04:48:15.912Z,35.57
2023-05-08T04:50:42.247Z,35.52
2023-05-08T04:53:08.563Z,35.49
2023-05-08T04:55:34.941Z,35.64
2023-05-08T04:58:01.354Z,35.59
2023-05-08T05:00:27.699Z,35.62
2023-05-08T05:02:54.025Z,35.41
2023-05-08T05:05:20.645Z,35.44
2023-05-08T05:07:47.072Z,35.53
2023-05-08T05:10:13.541Z,35.31
2023-05-08T05:12:40.019Z,35.22
2023-05-08T05:15:06.785Z,35.13
2023-05-08T05:17:33.489Z,35.26
2023-05-08T05:19:59.850Z,35.06
2023-05-08T05:22:26.376Z,35.16
2023-05-08T05:24:52.820Z,35.27
2023-05-08T05:27:21.189Z,35.09
2023-05-08T05:29:47.800Z,35.14
2023-05-08T05:32:14.122Z,35.29
2023-05-08T05:34:40.915Z,35.17
2023-05-08T05:37:07.833Z,35.15
2023-05-08T05:39:35.827Z,35.28
2023-05-08T05:42:02.189Z,34.99
2023-05-08T05:44:28.650Z,35.35
2023-05-08T05:46:55.139Z,35.10
2023-05-08T05:49:21.567Z,35.22
2023-05-08T05:51:48.044Z,35.20
2023-05-08T05:54:14.599Z,35.24
2023-05-08T05:56:40.956Z,35.18
2023-05-08T05:59:07.357Z,35.10
2023-05-08T06:01:33.740Z,35.18
2023-05-08T06:04:00.148Z,35.28
2023-05-08T06:06:26.905Z,35.38
2023-05-08T06:08:53.289Z,35.30
2023-05-08T06:11:19.703Z,35.10
2023-05-08T06:13:47.204Z,35.22
2023-05-08T06:16:15.626Z,35.51
2023-05-08T06:18:41.999Z,35.69
2023-05-08T06:21:08.373Z,35.87
2023-05-08T06:23:35.670Z,36.26
2023-05-08T06:26:02.118Z,36.47
2023-05-08T06:28:28.572Z,36.36
2023-05-08T06:30:54.999Z,36.26
2023-05-08T06:33:21.357Z,36.30
2023-05-08T06:35:48.322Z,36.39
2023-05-08T06:38:15.222Z,36.31
2023-05-08T06:40:42.678Z,36.27
2023-05-08T06:43:09.030Z,36.30
2023-05-08T06:45:35.459Z,36.27
2023-05-08T06:48:01.854Z,36.04
2023-05-08T06:50:28.188Z,36.16
2023-05-08T06:52:54.584Z,35.62
2023-05-08T06:55:21.062Z,35.53
2023-05-08T06:57:47.511Z,35.52
2023-05-08T07:00:14.015Z,35.19
2023-05-08T07:02:40.472Z,35.28
2023-05-08T07:05:07.289Z,35.44
2023-05-08T07:07:33.706Z,35.47
2023-05-08T07:10:00.091Z,35.70
2023-05-08T07:12:27.026Z,35.86
2023-05-08T07:14:54.694Z,36.05
2023-05-08T07:17:22.246Z,35.53
2023-05-08T07:19:51.660Z,34.18
2023-05-08T07:22:18.106Z,34.14
2023-05-08T07:24:44.529Z,34.31
2023-05-08T07:27:10.907Z,33.47
2023-05-08T07:29:39.035Z,32.94
2023-05-08T07:32:07.598Z,32.43
2023-05-08T07:34:34.883Z,32.22
2023-05-08T07:37:01.265Z,31.03
2023-05-08T07:39:27.622Z,30.18
2023-05-08T07:41:54.116Z,30.27
2023-05-08T07:44:20.551Z,30.27
2023-05-08T07:46:46.923Z,30.24
2023-05-08T07:49:13.364Z,30.34
2023-05-08T07:51:40.222Z,30.32
2023-05-08T07:54:06.653Z,30.18
2023-05-08T07:56:32.976Z,30.58
2023-05-08T07:58:59.398Z,30.44
2023-05-08T08:01:25.940Z,30.31
2023-05-08T08:03:54.320Z,30.14
2023-05-08T08:06:20.835Z,30.41
2023-05-08T08:08:47.235Z,30.59
2023-05-08T08:11:13.680Z,30.41
2023-05-08T08:13:40.137Z,30.65
2023-05-08T08:16:06.586Z,30.65
2023-05-08T08:18:36.730Z,30.68
2023-05-08T08:21:06.639Z,30.75
2023-05-08T08:23:33.659Z,30.95
2023-05-08T08:26:00.109Z,31.00
2023-05-08T08:28:26.533Z,30.69
2023-05-08T08:30:52.995Z,30.79
2023-05-08T08:33:19.527Z,30.81
2023-05-08T08:35:46.074Z,30.83
2023-05-08T08:38:12.736Z,30.57
2023-05-08T08:40:39.894Z,30.62
2023-05-08T08:43:06.738Z,30.72
2023-05-08T08:45:33.157Z,30.58
2023-05-08T08:48:03.515Z,30.72
2023-05-08T08:50:33.627Z,31.41
2023-05-08T08:53:07.943Z,31.64
2023-05-08T08:55:37.453Z,32.23
2023-05-08T08:58:25.611Z,32.05
2023-05-08T09:00:52.524Z,31.94
2023-05-08T09:03:19.229Z,31.86
2023-05-08T09:05:45.812Z,32.04
2023-05-08T09:08:12.921Z,31.87
2023-05-08T09:10:39.549Z,31.94
2023-05-08T09:13:06.037Z,31.61
2023-05-08T09:15:33.091Z,31.42
2023-05-08T09:18:01.043Z,31.28
2023-05-08T09:20:28.377Z,30.99
2023-05-08T09:22:55.579Z,30.80
2023-05-08T09:25:22.040Z,30.49
2023-05-08T09:27:48.381Z,30.79
2023-05-08T09:30:14.759Z,30.53
2023-05-08T09:32:42.348Z,30.69
2023-05-08T09:35:09.722Z,30.12
2023-05-08T09:37:39.904Z,29.95
2023-05-08T09:40:16.076Z,30.06
2023-05-08T09:42:42.611Z,29.89
2023-05-08T09:45:09.443Z,29.79
2023-05-08T09:47:39.613Z,29.77
2023-05-08T09:50:10.718Z,29.93
2023-05-08T09:52:38.672Z,29.82
2023-05-08T09:55:09.532Z,29.59
2023-05-08T09:57:38.512Z,29.12
2023-05-08T10:00:06.775Z,29.16
2023-05-08T10:02:33.382Z,29.19
2023-05-08T10:04:59.864Z,29.40
2023-05-08T10:07:33.248Z,29.34
2023-05-08T10:10:03.708Z,29.52
2023-05-08T10:12:30.551Z,29.44
2023-05-08T10:14:57.155Z,29.33
2023-05-08T10:17:26.446Z,29.36
2023-05-08T10:19:55.667Z,29.02
2023-05-08T10:22:22.739Z,29.04
2023-05-08T10:24:50.112Z,29.07
2023-05-08T10:27:32.057Z,28.93
2023-05-08T10:30:01.419Z,28.85
2023-05-08T10:32:28.594Z,29.18
2023-05-08T10:34:59.815Z,28.72
2023-05-08T10:37:29.056Z,28.76
2023-05-08T10:39:55.637Z,28.67
2023-05-08T10:42:22.215Z,28.50
2023-05-08T10:44:49.047Z,28.45
2023-05-08T10:47:27.673Z,28.85
2023-05-08T10:50:16.431Z,28.96
2023-05-08T10:52:48.935Z,28.89
2023-05-08T10:55:31.859Z,28.83
2023-05-08T10:58:04.872Z,28.84
2023-05-08T11:00:50.411Z,28.70
2023-05-08T11:03:27.328Z,28.48
2023-05-08T11:05:58.388Z,28.66
2023-05-08T11:08:27.324Z,28.65
2023-05-08T11:10:53.632Z,28.85
2023-05-08T11:13:27.188Z,28.68
2023-05-08T11:15:53.716Z,28.93
2023-05-08T11:18:20.111Z,28.51
2023-05-08T11:20:57.192Z,28.71
2023-05-08T11:23:27.416Z,28.52
2023-05-08T11:26:03.803Z,28.70
2023-05-08T11:28:40.338Z,27.96
2023-05-08T11:31:07.921Z,27.64
2023-05-08T11:33:37.788Z,27.02
2023-05-08T11:36:14.220Z,26.80
2023-05-08T11:38:41.391Z,26.82
2023-05-08T11:41:07.847Z,26.83
2023-05-08T11:43:34.321Z,26.64
2023-05-08T11:46:04.101Z,26.81
2023-05-08T11:48:31.002Z,26.83
2023-05-08T11:50:58.818Z,26.74
2023-05-08T11:53:25.559Z,27.11
2023-05-08T11:55:55.171Z,27.17
2023-05-08T11:58:22.119Z,27.23
2023-05-08T12:00:48.861Z,27.34
2023-05-08T12:03:16.616Z,27.33
2023-05-08T12:05:43.506Z,27.14
2023-05-08T12:08:10.480Z,27.18
2023-05-08T12:10:51.695Z,27.24
2023-05-08T12:13:22.480Z,27.32
2023-05-08T12:15:50.356Z,27.38
2023-05-08T12:18:17.277Z,27.59
2023-05-08T12:20:44.119Z,27.54
2023-05-08T12:23:10.543Z,27.52
2023-05-08T12:25:38.611Z,27.50
2023-05-08T12:28:08.154Z,27.51
2023-05-08T12:30:34.988Z,27.57
2023-05-08T12:33:01.989Z,27.68
2023-05-08T12:35:28.569Z,27.31
2023-05-08T12:37:54.901Z,27.50
2023-05-08T12:40:28.142Z,27.70
2023-05-08T12:42:54.517Z,27.72
2023-05-08T12:45:25.569Z,27.73
2023-05-08T12:47:53.001Z,27.65
2023-05-08T12:50:25.714Z,27.60
2023-05-08T12:52:52.318Z,27.59
2023-05-08T12:55:22.418Z,27.75
2023-05-08T12:57:49.692Z,27.70
2023-05-08T13:00:17.222Z,27.60
2023-05-08T13:02:53.928Z,27.69
2023-05-08T13:05:21.079Z,27.67
2023-05-08T13:07:47.436Z,27.63
2023-05-08T13:10:14.176Z,27.57
2023-05-08T13:12:40.883Z,27.63
2023-05-08T13:15:07.652Z,27.50
2023-05-08T13:17:34.015Z,27.42
2023-05-08T13:20:00.392Z,27.50
2023-05-08T13:22:26.894Z,27.52
2023-05-08T13:24:53.359Z,27.65
2023-05-08T13:27:19.737Z,27.34
2023-05-08T13:29:46.080Z,27.62
2023-05-08T13:32:12.573Z,27.43
2023-05-08T13:34:49.707Z,27.41
2023-05-08T13:37:17.425Z,27.35
2023-05-08T13:39:43.765Z,27.32
2023-05-08T13:42:10.082Z,27.45
2023-05-08T13:44:36.440Z,27.41
2023-05-08T13:47:02.770Z,27.49
2023-05-08T13:49:29.151Z,27.35
2023-05-08T13:51:57.142Z,27.30
2023-05-08T13:54:23.842Z,27.10
2023-05-08T13:56:50.250Z,27.37
2023-05-08T13:59:16.711Z,27.21
2023-05-08T14:01:43.219Z,27.12
2023-05-08T14:04:09.777Z,27.08
2023-05-08T14:06:36.259Z,27.18
2023-05-08T14:09:02.801Z,27.21
2023-05-08T14:11:29.613Z,27.39
2023-05-08T14:13:56.168Z,27.37
2023-05-08T14:16:22.547Z,27.43
2023-05-08T14:18:49.127Z,27.54
2023-05-08T14:21:15.501Z,27.66
2023-05-08T14:23:42.743Z,27.60
2023-05-08T14:26:09.116Z,27.69
2023-05-08T14:28:35.586Z,27.48
2023-05-08T14:31:02.008Z,27.55
2023-05-08T14:33:28.479Z,27.58
2023-05-08T14:35:54.841Z,27.75
2023-05-08T14:38:21.223Z,27.89
2023-05-08T14:40:50.940Z,27.89
2023-05-08T14:43:17.622Z,27.96
2023-05-08T14:45:43.979Z,27.83
2023-05-08T14:48:10.415Z,27.97
2023-05-08T14:50:36.974Z,27.48
2023-05-08T14:53:03.433Z,27.44
2023-05-08T14:55:30.160Z,27.17
2023-05-08T14:57:56.712Z,27.18
2023-05-08T15:00:23.112Z,27.35
2023-05-08T15:02:49.917Z,27.34
2023-05-08T15:05:20.193Z,27.21
2023-05-08T15:07:47.059Z,27.03
2023-05-08T15:10:13.487Z,26.86
2023-05-08T15:12:39.948Z,27.07
2023-05-08T15:15:06.621Z,26.73
2023-05-08T15:17:36.568Z,26.83
2023-05-08T15:20:03.807Z,26.64
2023-05-08T15:22:30.197Z,26.80
2023-05-08T15:25:02.123Z,26.87
2023-05-08T15:27:28.915Z,26.79
2023-05-08T15:29:55.421Z,26.76
2023-05-08T15:32:21.954Z,26.59
2023-05-08T15:34:48.374Z,26.66
2023-05-08T15:37:14.680Z,26.54
2023-05-08T15:39:41.285Z,26.71
2023-05-08T15:42:07.595Z,26.54
2023-05-08T15:44:52.642Z,26.60
2023-05-08T15:47:22.572Z,26.70
2023-05-08T15:49:48.910Z,26.58
2023-05-08T15:52:19.695Z,26.69
2023-05-08T15:54:46.580Z,26.54
2023-05-08T15:57:13.272Z,26.75
2023-05-08T15:59:39.690Z,26.54
2023-05-08T16:02:06.364Z,26.56
2023-05-08T16:04:32.742Z,26.64
2023-05-08T16:06:59.570Z,26.50
2023-05-08T16:09:25.934Z,26.50
2023-05-08T16:11:52.285Z,26.53
2023-05-08T16:14:19.866Z,26.53
2023-05-08T16:16:46.210Z,26.71
2023-05-08T16:19:12.642Z,26.60
2023-05-08T16:21:39.021Z,26.61
2023-05-08T16:24:05.610Z,26.67
2023-05-08T16:26:32.007Z,26.65
2023-05-08T16:28:58.673Z,26.57
2023-05-08T16:31:25.159Z,26.81
2023-05-08T16:33:51.628Z,26.74
2023-05-08T16:36:18.013Z,26.75
2023-05-08T16:38:44.356Z,26.72
2023-05-08T16:41:11.319Z,26.98
2023-05-08T16:43:37.771Z,26.65
2023-05-08T16:46:07.408Z,26.75
2023-05-08T16:48:34.276Z,26.84
2023-05-08T16:51:00.709Z,26.71
2023-05-08T16:53:27.364Z,26.91
2023-05-08T16:55:56.803Z,26.74
2023-05-08T16:58:23.283Z,26.77
2023-05-08T17:00:49.829Z,26.70
2023-05-08T17:03:16.634Z,26.73
2023-05-08T17:05:43.221Z,26.68
2023-05-08T17:08:11.644Z,26.60
2023-05-08T17:10:39.323Z,26.72
2023-05-08T17:13:05.795Z,26.60
2023-05-08T17:15:32.379Z,26.75
2023-05-08T17:17:58.813Z,26.92
2023-05-08T17:20:25.261Z,27.01
2023-05-08T17:22:53.073Z,26.97
2023-05-08T17:25:19.659Z,26.85
2023-05-08T17:27:46.240Z,27.12
2023-05-08T17:30:14.852Z,26.96
2023-05-08T17:32:41.581Z,27.28
2023-05-08T17:35:08.196Z,27.21
2023-05-08T17:37:34.543Z,27.14
2023-05-08T17:40:01.213Z,27.32
2023-05-08T17:42:27.613Z,27.25
2023-05-08T17:44:54.068Z,27.28
2023-05-08T17:47:20.555Z,27.23
2023-05-08T17:49:46.991Z,27.48
2023-05-08T17:52:13.452Z,27.74
2023-05-08T17:54:39.838Z,27.65
2023-05-08T17:57:06.167Z,27.76
2023-05-08T17:59:32.562Z,27.78
2023-05-08T18:01:58.965Z,27.67
2023-05-08T18:04:26.251Z,27.83
2023-05-08T18:06:52.650Z,27.83
2023-05-08T18:09:19.287Z,27.79
2023-05-08T18:11:45.676Z,27.81
2023-05-08T18:14:12.086Z,27.84
2023-05-08T18:16:38.527Z,27.90
2023-05-08T18:19:05.073Z,27.85
2023-05-08T18:21:31.566Z,27.74
2023-05-08T18:23:57.916Z,27.70
2023-05-08T18:26:24.290Z,27.44
2023-05-08T18:28:50.648Z,27.58
2023-05-08T18:31:17.137Z,27.48
2023-05-08T18:33:43.579Z,27.52
2023-05-08T18:36:10.026Z,27.63
2023-05-08T18:38:36.497Z,27.45
2023-05-08T18:41:03.654Z,27.47
2023-05-08T18:43:30.124Z,27.56
2023-05-08T18:45:57.617Z,27.63
2023-05-08T18:48:25.275Z,27.65
2023-05-08T18:50:51.785Z,27.68
2023-05-08T18:53:18.873Z,27.73
2023-05-08T18:55:45.294Z,27.69
2023-05-08T18:58:12.591Z,27.71
2023-05-08T19:00:39.048Z,27.89
2023-05-08T19:03:05.655Z,27.87
2023-05-08T19:05:32.195Z,27.83
2023-05-08T19:07:58.580Z,27.92
2023-05-08T19:10:25.024Z,28.01
2023-05-08T19:12:51.402Z,27.85
2023-05-08T19:15:17.950Z,28.01
2023-05-08T19:17:44.433Z,28.02
2023-05-08T19:20:11.396Z,28.03
2023-05-08T19:22:37.969Z,27.94
2023-05-08T19:25:04.553Z,27.94
2023-05-08T19:27:32.135Z,28.10
2023-05-08T19:29:58.708Z,28.24
2023-05-08T19:32:25.598Z,28.17
2023-05-08T19:34:52.062Z,28.23
2023-05-08T19:37:18.474Z,28.23
2023-05-08T19:39:44.943Z,28.15
2023-05-08T19:42:13.735Z,28.34
2023-05-08T19:44:40.220Z,28.34
2023-05-08T19:47:06.887Z,28.13
2023-05-08T19:49:33.561Z,28.17
2023-05-08T19:51:59.968Z,28.37
2023-05-08T19:54:26.472Z,28.32
2023-05-08T19:56:52.951Z,28.31
2023-05-08T19:59:19.379Z,28.35
2023-05-08T20:01:45.843Z,28.33
2023-05-08T20:04:12.391Z,28.34
2023-05-08T20:06:39.294Z,28.39
2023-05-08T20:09:06.350Z,28.34
2023-05-08T20:11:32.815Z,28.38
2023-05-08T20:13:59.205Z,28.49
2023-05-08T20:16:25.687Z,28.30
2023-05-08T20:18:53.815Z,28.48
2023-05-08T20:21:20.542Z,28.48
2023-05-08T20:23:46.973Z,28.42
2023-05-08T20:26:13.503Z,28.43
2023-05-08T20:28:39.878Z,28.50
2023-05-08T20:31:06.387Z,28.51
2023-05-08T20:33:32.953Z,28.78
2023-05-08T20:35:59.275Z,28.63
2023-05-08T20:38:25.674Z,28.68
2023-05-08T20:40:54.174Z,28.65
2023-05-08T20:43:22.774Z,28.75
2023-05-08T20:45:49.266Z,28.55
2023-05-08T20:48:15.816Z,28.58
2023-05-08T20:50:42.275Z,28.72
2023-05-08T20:53:08.712Z,28.63
2023-05-08T20:55:35.163Z,28.65
2023-05-08T20:58:01.961Z,28.75
2023-05-08T21:00:28.432Z,28.88
2023-05-08T21:02:54.874Z,28.75
2023-05-08T21:05:21.289Z,28.86
2023-05-08T21:07:47.653Z,28.68
2023-05-08T21:10:14.316Z,28.84
2023-05-08T21:12:40.955Z,28.83
2023-05-08T21:15:07.879Z,28.90
2023-05-08T21:17:34.271Z,28.81
2023-05-08T21:20:00.726Z,28.91
2023-05-08T21:22:27.239Z,28.83
2023-05-08T21:24:53.712Z,28.90
2023-05-08T21:27:20.286Z,28.92
2023-05-08T21:29:46.596Z,28.85
2023-05-08T21:32:12.949Z,28.81
2023-05-08T21:34:39.274Z,28.83
2023-05-08T21:37:05.614Z,28.87
2023-05-08T21:39:31.980Z,28.92
2023-05-08T21:41:58.356Z,29.01
2023-05-08T21:44:24.726Z,28.95
2023-05-08T21:46:51.269Z,28.96
2023-05-08T21:49:17.772Z,28.97
2023-05-08T21:51:45.639Z,28.93
2023-05-08T21:54:12.051Z,28.94
2023-05-08T21:56:38.813Z,29.14
2023-05-08T21:59:05.421Z,28.90
2023-05-08T22:01:31.920Z,28.99
2023-05-08T22:03:58.516Z,28.93
2023-05-08T22:06:25.051Z,29.04
2023-05-08T22:08:51.412Z,29.07
2023-05-08T22:11:17.837Z,29.09
2023-05-08T22:13:44.181Z,29.46
2023-05-08T22:16:10.683Z,30.25
2023-05-08T22:18:37.125Z,30.99
2023-05-08T22:21:03.666Z,31.52
2023-05-08T22:23:30.263Z,31.60
2023-05-08T22:25:56.714Z,31.62
2023-05-08T22:28:23.084Z,31.68
2023-05-08T22:30:49.531Z,31.56
2023-05-08T22:33:15.939Z,31.57
2023-05-08T22:35:42.289Z,31.72
2023-05-08T22:38:08.696Z,31.51
2023-05-08T22:40:35.374Z,31.59
2023-05-08T22:43:01.782Z,31.45
2023-05-08T22:45:28.220Z,31.53
2023-05-08T22:47:54.692Z,31.40
2023-05-08T22:50:21.662Z,31.53
2023-05-08T22:52:48.160Z,31.45
2023-05-08T22:55:15.940Z,31.57
2023-05-08T22:57:43.060Z,31.41
2023-05-08T23:00:10.384Z,31.45
2023-05-08T23:02:37.017Z,31.52
2023-05-08T23:05:03.954Z,31.35
2023-05-08T23:07:30.360Z,31.38
2023-05-08T23:09:56.741Z,31.35
2023-05-08T23:12:23.173Z,31.56
2023-05-08T23:14:49.605Z,31.55
2023-05-08T23:17:16.008Z,31.56
2023-05-08T23:19:42.493Z,31.53
2023-05-08T23:22:09.205Z,31.49
2023-05-08T23:24:35.982Z,31.35
2023-05-08T23:27:02.388Z,31.49
2023-05-08T23:29:28.872Z,31.36
2023-05-08T23:31:55.236Z,31.39
2023-05-08T23:34:21.655Z,31.49
2023-05-08T23:36:47.989Z,31.43
2023-05-08T23:39:14.508Z,31.45
2023-05-08T23:41:40.871Z,31.41
2023-05-08T23:44:07.354Z,31.30
2023-05-08T23:46:33.725Z,31.44
2023-05-08T23:49:00.251Z,31.56
2023-05-08T23:51:26.597Z,31.42
2023-05-08T23:57:21.258Z,31.38
2023-05-08T23:59:47.593Z,31.52
